Minturn, Maine
Current Conditions -  °F | °C
As of 10:35 PM on Sunday 21 Dec 2014 (Local Time) from KBHB Reporting Station
Few Clouds Few Clouds  
Wind Chill: 20°   Ceiling: Unl
Heat Index: 27°   Visibility: 10mi
Dew Point: 27°   Wind: 6mph
Humidity: 100%   Direction: 20°NNE
Pressure: 30.39"   Gusts: NA
Location:  44.1451°N, 68.4525°W
Report Text: KBHB 220335Z AUTO 02005KT 10SM FEW050 M03/M03 A3039 RMK AO1
Loading
Personal Weather Stations






























Interactive Weather Map New forecast layout! Learn more

10-Day Weather Forecast

Advertisements
Track Severe Weather on mobile